Time;durP1;ratioP1;P1;durP2;ratioP2;P2;SDS_P1;SDS_P2;PMS_P1;PMS_P2;Temp;Humidity;BMP_temperature;BMP_pressure;BME280_temperature;BME280_humidity;BME280_pressure;Samples;Min_cycle;Max_cycle;Signal;HPM_P1;HPM_P2
2022/04/02 00:01:05;;;;;;;;;19.00;15.00;;;;;;;;527124;28;261074735;-86
2022/04/02 00:10:07;;;;;;;;;8.50;4.50;;;;;;;;2;261077811;261077811;-86
2022/04/02 00:18:22;;;;;;;;;11.50;11.50;;;;;;;;2;261079017;261079017;-86
2022/04/02 00:27:22;;;;;;;;;6.00;6.00;;;;;;;;2;261077591;261077591;-86
2022/04/02 00:35:38;;;;;;;;;6.50;6.50;;;;;;;;2;261077178;261077178;-87
2022/04/02 00:44:38;;;;;;;;;3.50;3.50;;;;;;;;2;261076361;261076361;-86
2022/04/02 00:52:54;;;;;;;;;1.50;1.50;;;;;;;;2;261074805;261074805;-87
2022/04/02 01:01:54;;;;;;;;;5.50;5.50;;;;;;;;2;261076465;261076465;-86
2022/04/02 01:10:10;;;;;;;;;4.00;4.00;;;;;;;;2;261074027;261074027;-87
2022/04/02 01:19:11;;;;;;;;;3.50;3.50;;;;;;;;2;261077147;261077147;-86
2022/04/02 01:27:26;;;;;;;;;3.50;3.50;;;;;;;;2;261076115;261076115;-87
2022/04/02 01:36:27;;;;;;;;;4.00;4.00;;;;;;;;2;261079842;261079842;-86
2022/04/02 01:44:49;;;;;;;;;4.00;1.00;;;;;;;;2;261077901;261077901;-87
2022/04/02 01:53:49;;;;;;;;;2.50;2.50;;;;;;;;2;260970101;260970101;-87
2022/04/02 02:02:05;;;;;;;;;2.50;2.50;;;;;;;;2;261076916;261076916;-86
2022/04/02 02:11:06;;;;;;;;;15.00;4.00;;;;;;;;2;261075976;261075976;-86
2022/04/02 02:19:21;;;;;;;;;1.50;1.50;;;;;;;;2;261074701;261074701;-86
2022/04/02 02:28:22;;;;;;;;;2.50;2.50;;;;;;;;2;261076422;261076422;-86
2022/04/02 02:36:37;;;;;;;;;2.50;2.50;;;;;;;;2;261075634;261075634;-86
2022/04/02 02:45:38;;;;;;;;;3.00;3.00;;;;;;;;2;261076240;261076240;-87
2022/04/02 02:53:53;;;;;;;;;5.00;5.00;;;;;;;;2;261078623;261078623;-87
2022/04/02 03:02:54;;;;;;;;;4.00;4.00;;;;;;;;2;261084402;261084402;-86
2022/04/02 03:11:09;;;;;;;;;2.00;2.00;;;;;;;;2;261077720;261077720;-87
2022/04/02 03:20:11;;;;;;;;;10.00;6.00;;;;;;;;2;261079469;261079469;-87
2022/04/02 03:28:27;;;;;;;;;3.50;3.50;;;;;;;;2;261074742;261074742;-87
2022/04/02 03:37:28;;;;;;;;;4.00;4.00;;;;;;;;2;261073633;261073633;-85
2022/04/02 03:45:44;;;;;;;;;2.00;2.00;;;;;;;;2;261079626;261079626;-86
2022/04/02 03:54:44;;;;;;;;;4.50;4.50;;;;;;;;2;261077223;261077223;-86
2022/04/02 04:03:00;;;;;;;;;6.00;6.00;;;;;;;;2;261076321;261076321;-85
2022/04/02 04:12:00;;;;;;;;;6.50;6.50;;;;;;;;2;261078731;261078731;-86
2022/04/02 04:20:16;;;;;;;;;6.00;6.00;;;;;;;;2;261079757;261079757;-85
2022/04/02 04:29:16;;;;;;;;;5.50;5.50;;;;;;;;2;261075945;261075945;-86
2022/04/02 04:37:35;;;;;;;;;3.00;3.00;;;;;;;;2;261075462;261075462;-86
2022/04/02 04:46:36;;;;;;;;;7.50;3.50;;;;;;;;2;261075388;261075388;-85
2022/04/02 04:54:51;;;;;;;;;4.50;4.50;;;;;;;;2;261077396;261077396;-85
2022/04/02 05:03:51;;;;;;;;;7.00;7.00;;;;;;;;2;261081304;261081304;-85
2022/04/02 05:12:07;;;;;;;;;4.00;4.00;;;;;;;;2;261076994;261076994;-86
2022/04/02 05:21:07;;;;;;;;;4.50;4.50;;;;;;;;2;261078351;261078351;-85
2022/04/02 05:29:23;;;;;;;;;3.50;3.50;;;;;;;;2;261076858;261076858;-86
2022/04/02 05:38:23;;;;;;;;;14.00;3.00;;;;;;;;2;260805901;260805901;-85
2022/04/02 05:46:38;;;;;;;;;4.50;4.50;;;;;;;;2;261077553;261077553;-85
2022/04/02 05:55:39;;;;;;;;;4.00;4.00;;;;;;;;2;261074391;261074391;-85
2022/04/02 06:03:54;;;;;;;;;5.00;5.00;;;;;;;;2;261079007;261079007;-85
2022/04/02 06:12:55;;;;;;;;;1.50;1.50;;;;;;;;2;261075825;261075825;-86
2022/04/02 06:21:11;;;;;;;;;4.00;4.00;;;;;;;;2;261077454;261077454;-86
2022/04/02 06:30:13;;;;;;;;;5.00;5.00;;;;;;;;2;261078914;261078914;-85
2022/04/02 06:38:28;;;;;;;;;3.00;3.00;;;;;;;;2;261077755;261077755;-85
2022/04/02 06:47:29;;;;;;;;;6.50;6.50;;;;;;;;2;261076710;261076710;-85
2022/04/02 06:55:45;;;;;;;;;3.50;3.50;;;;;;;;2;261077092;261077092;-86
2022/04/02 07:04:46;;;;;;;;;3.50;3.50;;;;;;;;2;261080916;261080916;-85
2022/04/02 07:13:01;;;;;;;;;4.00;4.00;;;;;;;;2;261076235;261076235;-85
2022/04/02 07:22:06;;;;;;;;;1.50;1.50;;;;;;;;2;261074956;261074956;-87
2022/04/02 07:30:22;;;;;;;;;6.50;6.50;;;;;;;;2;261075251;261075251;-86
2022/04/02 07:39:32;;;;;;;;;4.00;4.00;;;;;;;;2;261080858;261080858;-85
2022/04/02 07:47:57;;;;;;;;;4.50;4.50;;;;;;;;2;261075378;261075378;-86
2022/04/02 07:57:01;;;;;;;;;2.00;2.00;;;;;;;;2;261078295;261078295;-85
2022/04/02 08:05:20;;;;;;;;;4.50;4.50;;;;;;;;2;261079690;261079690;-86
2022/04/02 08:14:23;;;;;;;;;4.00;4.00;;;;;;;;2;261078648;261078648;-89
2022/04/02 08:22:38;;;;;;;;;4.50;4.50;;;;;;;;2;261076070;261076070;-90
2022/04/02 08:31:40;;;;;;;;;4.50;4.50;;;;;;;;2;261074463;261074463;-89
2022/04/02 08:39:59;;;;;;;;;5.00;5.00;;;;;;;;2;261073057;261073057;-91
2022/04/02 08:49:10;;;;;;;;;3.00;3.00;;;;;;;;2;261076633;261076633;-86
2022/04/02 08:57:31;;;;;;;;;2.00;2.00;;;;;;;;2;261081547;261081547;-86
2022/04/02 09:06:50;;;;;;;;;4.00;4.00;;;;;;;;2;261080732;261080732;-86
2022/04/02 09:15:24;;;;;;;;;3.00;3.00;;;;;;;;2;261079736;261079736;-86
2022/04/02 09:27:44;;;;;;;;;3.00;3.00;;;;;;;;2;261079854;261079854;-86
2022/04/02 09:35:59;;;;;;;;;3.00;3.00;;;;;;;;2;261078937;261078937;-87
2022/04/02 09:45:21;;;;;;;;;3.50;3.50;;;;;;;;2;261078141;261078141;-84
2022/04/02 09:53:41;;;;;;;;;3.00;3.00;;;;;;;;2;261077061;261077061;-83
2022/04/02 10:03:00;;;;;;;;;1.50;1.50;;;;;;;;2;261079874;261079874;-84
2022/04/02 10:11:18;;;;;;;;;1.50;1.50;;;;;;;;2;261079417;261079417;-85
2022/04/02 10:20:28;;;;;;;;;4.50;4.50;;;;;;;;2;261076289;261076289;-88
2022/04/02 10:28:49;;;;;;;;;4.00;4.00;;;;;;;;2;261075051;261075051;-88
2022/04/02 10:37:55;;;;;;;;;4.00;4.00;;;;;;;;2;260980873;260980873;-89
2022/04/02 10:46:13;;;;;;;;;13.00;9.00;;;;;;;;2;261078390;261078390;-88
2022/04/02 10:55:20;;;;;;;;;5.00;5.00;;;;;;;;2;261075004;261075004;-88
2022/04/02 11:03:40;;;;;;;;;3.00;3.00;;;;;;;;2;261083729;261083729;-87
2022/04/02 11:12:48;;;;;;;;;3.50;3.50;;;;;;;;2;261075733;261075733;-87
2022/04/02 11:21:06;;;;;;;;;6.50;6.50;;;;;;;;2;261076065;261076065;-86
2022/04/02 11:30:08;;;;;;;;;4.00;4.00;;;;;;;;2;261074118;261074118;-88
2022/04/02 11:38:32;;;;;;;;;1.50;1.50;;;;;;;;2;261080525;261080525;-88
2022/04/02 11:47:34;;;;;;;;;2.50;2.50;;;;;;;;2;261074947;261074947;-89
2022/04/02 11:55:50;;;;;;;;;3.00;3.00;;;;;;;;2;261080828;261080828;-87
2022/04/02 12:04:59;;;;;;;;;5.00;5.00;;;;;;;;2;261074749;261074749;-87
2022/04/02 12:13:16;;;;;;;;;3.50;3.50;;;;;;;;2;261074476;261074476;-87
2022/04/02 12:22:16;;;;;;;;;14.00;10.50;;;;;;;;2;261078013;261078013;-88
2022/04/02 12:30:33;;;;;;;;;4.00;4.00;;;;;;;;2;261082824;261082824;-89
2022/04/02 12:39:33;;;;;;;;;0.00;0.00;;;;;;;;2;261076298;261076298;-87
2022/04/02 12:48:01;;;;;;;;;3.00;3.00;;;;;;;;2;261073581;261073581;-87
2022/04/02 12:57:12;;;;;;;;;6.00;2.00;;;;;;;;2;261076551;261076551;-87
2022/04/02 13:05:44;;;;;;;;;2.00;2.00;;;;;;;;2;261079190;261079190;-87
2022/04/02 13:14:49;;;;;;;;;6.00;6.00;;;;;;;;2;261080400;261080400;-87
2022/04/02 13:23:07;;;;;;;;;3.50;3.50;;;;;;;;2;261077980;261077980;-86
2022/04/02 13:32:07;;;;;;;;;6.50;6.50;;;;;;;;2;261078106;261078106;-87
2022/04/02 13:40:24;;;;;;;;;4.50;4.50;;;;;;;;2;261074919;261074919;-87
2022/04/02 13:49:30;;;;;;;;;4.00;4.00;;;;;;;;2;261073702;261073702;-86
2022/04/02 13:57:49;;;;;;;;;7.50;4.50;;;;;;;;2;261074622;261074622;-86
2022/04/02 14:06:54;;;;;;;;;5.00;5.00;;;;;;;;2;261077659;261077659;-85
2022/04/02 14:15:13;;;;;;;;;10.50;6.50;;;;;;;;2;261076010;261076010;-85
2022/04/02 14:24:19;;;;;;;;;14.50;6.00;;;;;;;;2;261075960;261075960;-83
2022/04/02 14:32:53;;;;;;;;;7.00;7.00;;;;;;;;2;261078795;261078795;-85
2022/04/02 14:41:54;;;;;;;;;13.50;4.50;;;;;;;;2;261078720;261078720;-86
2022/04/02 14:50:24;;;;;;;;;1.50;1.50;;;;;;;;2;261079567;261079567;-85
2022/04/02 14:59:37;;;;;;;;;6.50;6.50;;;;;;;;2;261083411;261083411;-86
2022/04/02 15:08:09;;;;;;;;;5.50;5.50;;;;;;;;2;261084112;261084112;-85
2022/04/02 15:17:19;;;;;;;;;6.50;6.50;;;;;;;;2;261078047;261078047;-85
2022/04/02 15:25:36;;;;;;;;;5.00;5.00;;;;;;;;2;261078930;261078930;-85
2022/04/02 15:34:53;;;;;;;;;15.50;4.50;;;;;;;;2;261081630;261081630;-87
2022/04/02 15:43:08;;;;;;;;;5.00;5.00;;;;;;;;2;261081134;261081134;-86
2022/04/02 15:52:15;;;;;;;;;4.00;4.00;;;;;;;;2;261076716;261076716;-85
2022/04/02 16:00:30;;;;;;;;;5.00;5.00;;;;;;;;2;261079642;261079642;-83
2022/04/02 16:09:37;;;;;;;;;4.00;4.00;;;;;;;;2;261079679;261079679;-84
2022/04/02 16:18:10;;;;;;;;;6.50;6.50;;;;;;;;2;261080747;261080747;-83
2022/04/02 16:27:12;;;;;;;;;9.00;9.00;;;;;;;;2;261078175;261078175;-84
2022/04/02 16:35:27;;;;;;;;;9.00;9.00;;;;;;;;2;261079056;261079056;-84
2022/04/02 16:44:28;;;;;;;;;18.50;6.50;;;;;;;;2;261080903;261080903;-83
2022/04/02 16:52:44;;;;;;;;;13.00;5.00;;;;;;;;2;261076338;261076338;-86
2022/04/02 17:01:46;;;;;;;;;4.00;4.00;;;;;;;;2;260987311;260987311;-83
2022/04/02 17:10:05;;;;;;;;;7.00;7.00;;;;;;;;2;261081025;261081025;-84
2022/04/02 17:19:06;;;;;;;;;16.00;16.00;;;;;;;;2;261079600;261079600;-83
2022/04/02 17:27:23;;;;;;;;;23.00;23.00;;;;;;;;2;261084260;261084260;-85
2022/04/02 17:36:25;;;;;;;;;31.50;16.50;;;;;;;;2;261082659;261082659;-86
2022/04/02 17:44:41;;;;;;;;;19.50;19.50;;;;;;;;2;261079285;261079285;-85
2022/04/02 17:53:42;;;;;;;;;29.00;28.50;;;;;;;;2;261080491;261080491;-84
2022/04/02 18:02:00;;;;;;;;;29.00;27.50;;;;;;;;2;261081955;261081955;-82
2022/04/02 18:11:01;;;;;;;;;20.50;20.50;;;;;;;;2;261080323;261080323;-85
2022/04/02 18:19:16;;;;;;;;;75.50;51.00;;;;;;;;2;261078479;261078479;-87
2022/04/02 18:28:17;;;;;;;;;15.00;12.00;;;;;;;;2;261079996;261079996;-82
2022/04/02 18:36:32;;;;;;;;;45.00;39.00;;;;;;;;2;261081196;261081196;-86
2022/04/02 18:45:33;;;;;;;;;12.00;12.00;;;;;;;;2;260933571;260933571;-87
2022/04/02 18:53:48;;;;;;;;;22.00;22.00;;;;;;;;2;261076443;261076443;-86
2022/04/02 19:02:49;;;;;;;;;6.00;6.00;;;;;;;;2;261077670;261077670;-85
2022/04/02 19:11:04;;;;;;;;;26.50;26.50;;;;;;;;2;261077288;261077288;-86
2022/04/02 19:20:05;;;;;;;;;19.50;16.00;;;;;;;;2;261077795;261077795;-85
2022/04/02 19:28:21;;;;;;;;;73.50;61.00;;;;;;;;2;261076137;261076137;-85
2022/04/02 19:37:21;;;;;;;;;46.50;33.50;;;;;;;;2;261077914;261077914;-85
2022/04/02 19:45:35;;;;;;;;;26.00;26.00;;;;;;;;2;259450420;259450420;-86
2022/04/02 19:54:36;;;;;;;;;32.50;15.00;;;;;;;;2;261077465;261077465;-86
2022/04/02 20:02:51;;;;;;;;;42.00;33.50;;;;;;;;2;261076822;261076822;-85
2022/04/02 20:11:52;;;;;;;;;40.00;25.00;;;;;;;;2;261078470;261078470;-84
2022/04/02 20:20:09;;;;;;;;;36.50;33.50;;;;;;;;2;261080197;261080197;-84
2022/04/02 20:29:09;;;;;;;;;34.00;32.00;;;;;;;;2;261002670;261002670;-88
2022/04/02 20:37:25;;;;;;;;;18.50;18.50;;;;;;;;2;260869856;260869856;-81
2022/04/02 20:46:24;;;;;;;;;13.50;13.50;;;;;;;;2;261080093;261080093;-81
2022/04/02 20:54:40;;;;;;;;;35.00;17.50;;;;;;;;2;261074927;261074927;-81
2022/04/02 21:03:40;;;;;;;;;14.50;14.50;;;;;;;;2;261078208;261078208;-80
2022/04/02 21:11:58;;;;;;;;;17.00;11.50;;;;;;;;2;261079153;261079153;-81
2022/04/02 21:20:59;;;;;;;;;18.50;18.50;;;;;;;;2;261078174;261078174;-82
2022/04/02 21:29:14;;;;;;;;;15.00;15.00;;;;;;;;2;261076893;261076893;-83
2022/04/02 21:38:14;;;;;;;;;11.50;11.50;;;;;;;;2;261079645;261079645;-83
2022/04/02 21:46:30;;;;;;;;;11.50;10.00;;;;;;;;2;261079854;261079854;-82
2022/04/02 21:55:30;;;;;;;;;8.50;8.50;;;;;;;;2;261077939;261077939;-81
2022/04/02 22:03:46;;;;;;;;;13.00;13.00;;;;;;;;2;261078677;261078677;-80
2022/04/02 22:12:46;;;;;;;;;8.00;8.00;;;;;;;;2;261080616;261080616;-79
2022/04/02 22:21:01;;;;;;;;;12.50;12.50;;;;;;;;2;260501373;260501373;-80
2022/04/02 22:30:00;;;;;;;;;10.50;10.50;;;;;;;;2;259377482;259377482;-80
2022/04/02 22:38:15;;;;;;;;;19.50;8.50;;;;;;;;2;261022300;261022300;-81
2022/04/02 22:47:16;;;;;;;;;14.00;14.00;;;;;;;;2;260948053;260948053;-81
2022/04/02 22:55:32;;;;;;;;;16.50;12.50;;;;;;;;2;261075232;261075232;-81
2022/04/02 23:04:32;;;;;;;;;14.50;14.50;;;;;;;;2;261080341;261080341;-81
2022/04/02 23:12:47;;;;;;;;;20.00;7.00;;;;;;;;2;261078860;261078860;-82
2022/04/02 23:21:48;;;;;;;;;9.00;9.00;;;;;;;;2;260971501;260971501;-85
2022/04/02 23:30:02;;;;;;;;;12.50;12.50;;;;;;;;2;260894663;260894663;-82
2022/04/02 23:39:02;;;;;;;;;9.00;9.00;;;;;;;;2;261079356;261079356;-82
2022/04/02 23:47:17;;;;;;;;;12.00;12.00;;;;;;;;2;260739211;260739211;-83
2022/04/02 23:56:18;;;;;;;;;10.00;10.00;;;;;;;;2;261073614;261073614;-82
